Abilene, TX

1:19 PM CDT on May 28, 2015 (GMT -0500)
Abilene Regional | | Change Station
CLOSE
Current Station
Airport
Location: Abilene,
Elevation: 1788 ft
Nearby Weather Stations
Active Advisory: Tornado Watch

Elev 1788 ft 32.41 °N, 99.68 °W | Updated 27 minutes ago

Mostly Cloudy
Mostly Cloudy
81 °F
Feels Like 83 °F
N
15
Wind Variable Wind from South

Today
High -- | Low -- °F
--% Chance of Precip.
Yesterday
High -- | Low -- °F
Precip. -- in
6:33 AM 8:38 PM
Waxing Gibbous, 77% visible
Pressure 29.98 in
Visibility 10.0 miles
Clouds Few 3300 ft
Mostly Cloudy 4800 ft
Overcast 6000 ft
Heat Index 83 °F
Dew Point 67 °F
Humidity 62%
Rainfall 0.00 in
Snow Depth Not available.
UV 4 out of 12
Pollen 6.00 out of 12
Air Quality Not available.
Flu Activity Sporadic
METAR KABI 281752Z 18013KT 10SM FEW033 BKN048 OVC060 27/19 A3005 RMK AO2 SLP150 T02720194 10272 20222 58003

More Conditions Fewer Conditions

Pressure 29.98 in
Visibility 10.0 miles
Clouds Few 3300 ft
Mostly Cloudy 4800 ft
Overcast 6000 ft
Heat Index 83 °F
Dew Point 67 °F
Humidity 62%
Rainfall 0.00 in
Snow Depth Not available.
UV 4 out of 12
Pollen 6.00 out of 12
Air Quality Not available.
Flu Activity Sporadic
METAR KABI 281752Z 18013KT 10SM FEW033 BKN048 OVC060 27/19 A3005 RMK AO2 SLP150 T02720194 10272 20222 58003

More Conditions Fewer Conditions

10-Day Weather Forecast

Almanac

Astronomy

May. 28, 2015 Rise Set
Actual Time
Civil Twilight
Nautical Twilight
Astronomical Twilight
Moon
Length of Visible Light
Length of Day
Tomorrow will be .
, % of the Moon is Illuminated

Today's Extremes

State Highs State Lows

Community

WunderPhotos

Upload Photos

1,825,009 photos uploaded!

WunderBlogs® & News

Nearby

Air Quality

  Air Quality AQ Index Pollutant
Not available.

Snow Depth

Station Depth Elevation

Earthquake Activity

City Distance Mag. Time & Date
Minimum magnitude displayed is 2.5.

Coastal Water Temperatures

Place Temperature

Stations

Nearby Weather Stations

Station Location Temp. Windchill Dew Point Humidity Wind Precip. Elev Updated Type
                   
Tornado Watch
Statement as of 1:03 PM CDT on May 28, 2015

Tornado Watch 234 remains in effect until 800 PM CDT for the
following locations

TX
. Texas counties included are

Andrews Bailey Baylor
Borden Brewster Callahan
Cochran Coke Cottle
Crane Crockett Crosby
Culberson Dawson Dickens
Ector Fisher Floyd
Foard Gaines Garza
Glasscock Hale Hardeman
Haskell Hockley Howard
Irion Jeff Davis Jones
Kent King Knox
Lamb Loving Lubbock
Lynn Martin Midland
Mitchell Motley Nolan
Pecos Presidio Reagan
Reeves Runnels Schleicher
Scurry Shackelford Sterling
Stonewall Sutton Taylor
Terrell Terry Throckmorton
Tom Green Upton Val Verde
Ward Wilbarger Winkler
Yoakum